Time;durP1;ratioP1;P1;durP2;ratioP2;P2;SDS_P1;SDS_P2;PMS_P1;PMS_P2;Temp;Humidity;BMP_temperature;BMP_pressure;BME280_temperature;BME280_humidity;BME280_pressure;Samples;Min_cycle;Max_cycle;Signal;HPM_P1;HPM_P2
2020/12/10 00:00:51;;;;;;;34.43;18.30;;;;;;;0.35;68.55;100041.49;124660;1095;104633;-75
2020/12/10 00:03:19;;;;;;;36.35;20.60;;;;;;;0.33;68.74;100038.13;124596;1095;104599;-75
2020/12/10 00:05:48;;;;;;;34.47;19.00;;;;;;;0.35;68.97;100038.87;124610;1095;104638;-77
2020/12/10 00:08:16;;;;;;;35.77;20.00;;;;;;;0.33;68.95;100042.53;124629;1095;104631;-74
2020/12/10 00:10:45;;;;;;;39.87;19.73;;;;;;;0.35;68.80;100041.49;124571;1095;104609;-74
2020/12/10 00:13:13;;;;;;;35.05;18.55;;;;;;;0.33;68.91;100032.88;124620;1095;104574;-75
2020/12/10 00:15:41;;;;;;;32.53;18.27;;;;;;;0.34;68.96;100034.55;124587;1095;104487;-74
2020/12/10 00:18:09;;;;;;;30.47;17.10;;;;;;;0.34;68.80;100034.55;124598;1095;104629;-75
2020/12/10 00:20:38;;;;;;;27.20;14.83;;;;;;;0.31;68.39;100028.63;124603;1095;104685;-72
2020/12/10 00:23:06;;;;;;;31.83;16.30;;;;;;;0.30;68.90;100033.05;124649;1095;104522;-75
2020/12/10 00:25:34;;;;;;;29.45;16.40;;;;;;;0.30;69.14;100032.20;124614;1095;104644;-76
2020/12/10 00:28:03;;;;;;;33.23;19.27;;;;;;;0.33;68.99;100032.88;124615;1095;104487;-75
2020/12/10 00:30:32;;;;;;;36.73;19.00;;;;;;;0.34;68.50;100029.30;124587;1095;104602;-75
2020/12/10 00:33:00;;;;;;;35.40;18.40;;;;;;;0.36;68.85;100023.95;124613;1095;104599;-75
2020/12/10 00:35:28;;;;;;;27.27;14.27;;;;;;;0.36;68.70;100035.29;124620;1095;104561;-73
2020/12/10 00:37:57;;;;;;;24.97;13.93;;;;;;;0.36;68.79;100037.91;124615;1095;104574;-74
2020/12/10 00:40:25;;;;;;;26.57;13.37;;;;;;;0.39;68.17;100032.48;124584;1095;104706;-74
2020/12/10 00:42:53;;;;;;;28.53;15.80;;;;;;;0.37;68.63;100021.25;124616;1095;104618;-73
2020/12/10 00:45:22;;;;;;;27.00;15.77;;;;;;;0.38;68.74;100019.45;124604;1095;104535;-76
2020/12/10 00:47:51;;;;;;;32.70;17.70;;;;;;;0.36;68.92;100018.70;124636;1095;104596;-76
2020/12/10 00:50:19;;;;;;;31.70;16.60;;;;;;;0.33;68.56;100014.50;124661;1095;105025;-72
2020/12/10 00:52:47;;;;;;;27.93;14.63;;;;;;;0.34;68.63;100004.84;124615;1095;104586;-74
2020/12/10 00:55:16;;;;;;;30.90;16.30;;;;;;;0.34;68.55;100004.84;124666;1095;105120;-72
2020/12/10 00:57:45;;;;;;;28.27;15.17;;;;;;;0.31;68.63;99992.76;124626;1095;104634;-73
2020/12/10 01:00:14;;;;;;;33.93;18.13;;;;;;;0.33;69.07;99992.67;124598;1095;104574;-73
2020/12/10 01:02:42;;;;;;;32.43;17.20;;;;;;;0.31;68.43;99992.76;124575;1096;104529;-74
2020/12/10 01:05:10;;;;;;;34.30;18.50;;;;;;;0.29;68.44;99983.27;124596;1095;104512;-74
2020/12/10 01:07:39;;;;;;;32.70;18.17;;;;;;;0.30;68.41;99977.10;124642;1095;104599;-75
2020/12/10 01:10:07;;;;;;;38.50;19.10;;;;;;;0.28;68.48;99987.69;124625;1095;104624;-74
2020/12/10 01:12:35;;;;;;;32.03;17.80;;;;;;;0.29;68.30;99978.89;124597;1095;104509;-77
2020/12/10 01:15:04;;;;;;;29.83;15.83;;;;;;;0.21;68.20;99973.24;124675;1095;104602;-74
2020/12/10 01:17:32;;;;;;;33.55;18.05;;;;;;;0.18;68.32;99965.58;124617;1095;104570;-76
2020/12/10 01:20:00;;;;;;;29.70;16.00;;;;;;;0.15;68.52;99965.75;124619;1095;104948;-75
2020/12/10 01:22:29;;;;;;;33.53;17.00;;;;;;;0.14;68.43;99969.33;124598;1095;104602;-73
2020/12/10 01:24:57;;;;;;;29.17;16.80;;;;;;;0.13;68.44;99967.62;124629;1095;104490;-74
2020/12/10 01:27:25;;;;;;;31.53;15.47;;;;;;;0.09;68.46;99971.37;124619;1095;104641;-75
2020/12/10 01:29:53;;;;;;;32.40;17.00;;;;;;;0.05;68.62;99962.84;124627;1095;104754;-75
2020/12/10 01:32:24;;;;;;;29.57;15.27;;;;;;;-0.01;68.18;99964.06;124592;1095;104519;-75
2020/12/10 01:34:52;;;;;;;29.47;16.10;;;;;;;-0.02;68.60;99959.77;124682;1095;104484;-74
2020/12/10 01:37:21;;;;;;;30.97;15.63;;;;;;;-0.02;68.39;99970.27;124657;1095;104724;-75
2020/12/10 01:39:49;;;;;;;30.05;15.85;;;;;;;-0.01;68.35;99961.44;124587;1095;104647;-75
2020/12/10 01:42:18;;;;;;;33.37;17.73;;;;;;;0.01;68.08;99958.73;124615;1095;104491;-74
2020/12/10 01:44:46;;;;;;;30.30;16.10;;;;;;;0.01;68.31;99957.89;124593;1095;104503;-75
2020/12/10 01:47:15;;;;;;;35.00;17.50;;;;;;;-0.01;68.25;99965.85;124620;1095;104663;-73
2020/12/10 01:49:43;;;;;;;33.20;17.43;;;;;;;0.00;68.53;99962.31;124624;1095;104609;-74
2020/12/10 01:52:11;;;;;;;31.37;17.17;;;;;;;0.04;68.50;99962.94;124599;1095;104916;-75
2020/12/10 01:54:40;;;;;;;29.03;15.90;;;;;;;0.07;68.29;99957.52;124634;1095;104522;-74
2020/12/10 01:57:08;;;;;;;28.87;15.77;;;;;;;0.10;68.32;99958.17;124616;1095;104615;-74
2020/12/10 01:59:37;;;;;;;28.90;15.83;;;;;;;0.11;68.50;99959.84;124993;1095;104587;-74
2020/12/10 02:02:05;;;;;;;24.37;12.50;;;;;;;0.08;68.34;99959.19;124587;1096;104512;-74
2020/12/10 02:04:37;;;;;;;28.33;13.40;;;;;;;0.03;68.44;99954.23;124582;1095;104532;-74
2020/12/10 02:07:06;;;;;;;23.20;12.47;;;;;;;-0.03;68.26;99952.82;124660;1096;104651;-75
2020/12/10 02:09:34;;;;;;;22.67;12.20;;;;;;;-0.07;68.61;99947.87;124585;1095;104573;-77
2020/12/10 02:12:03;;;;;;;19.97;10.93;;;;;;;-0.08;68.53;99939.17;124610;1095;104603;-77
2020/12/10 02:14:36;;;;;;;21.47;10.83;;;;;;;-0.08;69.20;99944.41;124614;1095;104651;-76
2020/12/10 02:17:06;;;;;;;19.10;11.40;;;;;;;-0.11;68.80;99936.72;124644;1095;104651;-78
2020/12/10 02:19:34;;;;;;;22.47;11.17;;;;;;;-0.14;68.82;99928.19;124623;1095;104593;-77
2020/12/10 02:22:03;;;;;;;21.00;11.73;;;;;;;-0.15;68.93;99929.98;124621;1096;104529;-76
2020/12/10 02:24:31;;;;;;;21.97;12.20;;;;;;;-0.17;68.78;99923.11;124600;1095;104602;-75
2020/12/10 02:26:59;;;;;;;25.80;13.83;;;;;;;-0.16;68.51;99927.44;124728;1095;104647;-77
2020/12/10 02:29:28;;;;;;;25.17;13.03;;;;;;;-0.13;68.97;99925.48;124682;1095;104670;-73
2020/12/10 02:31:56;;;;;;;26.13;12.90;;;;;;;-0.15;68.85;99927.35;124606;1095;104597;-74
2020/12/10 02:34:24;;;;;;;30.27;15.47;;;;;;;-0.17;68.67;99931.85;124615;1095;104490;-75
2020/12/10 02:36:53;;;;;;;26.43;13.83;;;;;;;-0.20;68.74;99924.98;124628;1095;104605;-75
2020/12/10 02:39:21;;;;;;;29.90;15.95;;;;;;;-0.20;68.68;99932.02;124606;1095;104697;-75
2020/12/10 02:41:49;;;;;;;31.00;16.03;;;;;;;-0.25;68.86;99923.58;124600;1095;104491;-75
2020/12/10 02:44:18;;;;;;;27.03;14.30;;;;;;;-0.28;68.60;99921.99;124611;1096;104522;-73
2020/12/10 02:46:46;;;;;;;29.43;14.27;;;;;;;-0.29;69.28;99917.70;124637;1095;104656;-73
2020/12/10 02:49:14;;;;;;;24.37;12.63;;;;;;;-0.28;68.69;99918.54;124616;1095;104532;-74
2020/12/10 02:51:44;;;;;;;25.43;13.53;;;;;;;-0.30;69.20;99912.55;124613;1095;104917;-74
2020/12/10 02:54:12;;;;;;;28.40;15.03;;;;;;;-0.34;68.97;99911.05;124647;1095;104596;-74
2020/12/10 02:56:42;;;;;;;26.83;13.63;;;;;;;-0.32;68.68;99899.52;124613;1095;104708;-73
2020/12/10 02:59:10;;;;;;;26.50;13.13;;;;;;;-0.29;68.96;99898.48;124596;1095;104513;-73
2020/12/10 03:01:39;;;;;;;30.00;15.00;;;;;;;-0.31;69.45;99884.63;124573;1095;104567;-74
2020/12/10 03:04:07;;;;;;;29.03;14.87;;;;;;;-0.33;69.32;99896.98;124612;1095;104519;-74
2020/12/10 03:06:35;;;;;;;30.77;15.30;;;;;;;-0.32;69.56;99893.45;124615;1095;104606;-76
2020/12/10 03:09:03;;;;;;;28.33;13.67;;;;;;;-0.30;68.68;99888.95;124630;1095;104583;-74
2020/12/10 03:11:32;;;;;;;27.90;13.97;;;;;;;-0.29;68.89;99891.48;124558;1095;104605;-74
2020/12/10 03:14:00;;;;;;;25.30;13.30;;;;;;;-0.30;68.55;99895.03;124628;1095;104622;-74
2020/12/10 03:16:28;;;;;;;23.93;12.13;;;;;;;-0.32;69.41;99877.72;124664;1095;104590;-75
2020/12/10 03:18:56;;;;;;;20.93;11.70;;;;;;;-0.31;69.16;99882.88;124616;1095;104574;-74
2020/12/10 03:21:25;;;;;;;20.10;10.83;;;;;;;-0.27;69.00;99879.13;124593;1095;104593;-75
2020/12/10 03:23:53;;;;;;;20.40;10.57;;;;;;;-0.23;69.45;99877.16;124696;1095;104611;-75
2020/12/10 03:26:21;;;;;;;23.67;11.53;;;;;;;-0.25;69.54;99884.25;124616;1096;104577;-73
2020/12/10 03:28:49;;;;;;;21.60;11.70;;;;;;;-0.24;69.99;99875.46;124598;1095;104633;-75
2020/12/10 03:31:18;;;;;;;19.77;10.30;;;;;;;-0.21;69.48;99870.05;124606;1095;104871;-74
2020/12/10 03:33:46;;;;;;;19.17;10.47;;;;;;;-0.22;69.17;99863.94;124645;1095;104512;-73
2020/12/10 03:36:14;;;;;;;19.45;10.15;;;;;;;-0.23;69.46;99861.43;124635;1095;104574;-75
2020/12/10 03:38:43;;;;;;;17.67;9.50;;;;;;;-0.23;69.50;99864.05;124595;1095;104566;-75
2020/12/10 03:41:11;;;;;;;19.20;9.97;;;;;;;-0.24;69.39;99862.35;124593;1095;104503;-74
2020/12/10 03:43:39;;;;;;;19.20;9.80;;;;;;;-0.22;69.68;99857.86;124594;1096;104558;-75
2020/12/10 03:46:07;;;;;;;19.83;10.70;;;;;;;-0.21;69.71;99859.55;124644;1095;104528;-76
2020/12/10 03:48:36;;;;;;;21.90;10.53;;;;;;;-0.20;69.56;99861.22;124620;1095;104541;-74
2020/12/10 03:51:04;;;;;;;22.90;11.03;;;;;;;-0.22;69.75;99858.69;124607;1095;104923;-75
2020/12/10 03:53:32;;;;;;;20.03;11.13;;;;;;;-0.23;70.04;99843.08;124664;1095;104535;-72
2020/12/10 03:56:01;;;;;;;20.83;10.93;;;;;;;-0.21;69.71;99856.93;124676;1095;104634;-72
2020/12/10 03:58:29;;;;;;;19.27;9.67;;;;;;;-0.16;70.07;99857.47;124590;1095;104627;-71
2020/12/10 04:00:57;;;;;;;17.23;9.60;;;;;;;-0.08;69.98;99854.38;124490;1095;104490;-72
2020/12/10 04:03:25;;;;;;;20.67;10.13;;;;;;;-0.06;69.41;99850.74;124488;1095;104647;-72
2020/12/10 04:05:54;;;;;;;18.33;10.43;;;;;;;-0.02;69.16;99849.61;124603;1095;104616;-73
2020/12/10 04:08:22;;;;;;;19.57;9.13;;;;;;;0.00;69.85;99846.90;124567;1095;104517;-72
2020/12/10 04:10:50;;;;;;;20.97;9.93;;;;;;;-0.06;69.92;99840.25;124717;1095;104497;-73
2020/12/10 04:13:18;;;;;;;88.10;36.95;;;;;;;-0.09;69.63;99840.43;124632;1095;104510;-72
2020/12/10 04:15:47;;;;;;;293.13;165.20;;;;;;;-0.07;69.98;99841.17;124735;1095;104644;-73
2020/12/10 04:18:15;;;;;;;187.13;93.70;;;;;;;-0.07;69.56;99835.92;124610;1095;104718;-73
2020/12/10 04:20:43;;;;;;;136.70;71.10;;;;;;;-0.06;69.90;99840.25;124782;1095;104501;-71
2020/12/10 04:23:11;;;;;;;167.67;102.03;;;;;;;-0.08;69.78;99831.64;125147;1096;104520;-74
2020/12/10 04:25:40;;;;;;;110.37;57.47;;;;;;;-0.07;69.64;99830.69;124588;1095;104631;-74
2020/12/10 04:28:08;;;;;;;56.43;26.70;;;;;;;-0.04;69.90;99829.64;124605;1095;104763;-73
2020/12/10 04:30:36;;;;;;;52.40;29.17;;;;;;;-0.01;69.84;99829.46;124612;1095;104523;-73
2020/12/10 04:33:04;;;;;;;70.17;44.63;;;;;;;0.03;69.79;99817.00;124606;1095;104599;-73
2020/12/10 04:35:33;;;;;;;70.83;44.47;;;;;;;0.03;69.70;99820.45;124614;1095;104679;-73
2020/12/10 04:38:01;;;;;;;37.33;19.80;;;;;;;0.04;69.80;99821.29;124603;1095;104829;-73
2020/12/10 04:40:30;;;;;;;30.23;15.90;;;;;;;-0.02;70.01;99823.38;124574;1096;104586;-74
2020/12/10 04:42:59;;;;;;;47.47;29.67;;;;;;;0.00;70.23;99823.29;124634;1095;104570;-73
2020/12/10 04:45:27;;;;;;;39.90;21.60;;;;;;;0.05;69.84;99822.98;124632;1095;104650;-74
2020/12/10 04:47:57;;;;;;;76.77;42.43;;;;;;;0.07;69.81;99821.94;124599;1095;104565;-74
2020/12/10 04:50:26;;;;;;;62.67;40.03;;;;;;;0.06;70.00;99824.66;124650;1095;104590;-74
2020/12/10 04:52:55;;;;;;;37.27;19.33;;;;;;;0.06;70.17;99827.28;124689;1095;104596;-74
2020/12/10 04:55:26;;;;;;;32.97;18.33;;;;;;;0.03;70.17;99823.08;124634;1095;104650;-74
2020/12/10 04:57:58;;;;;;;34.50;20.90;;;;;;;-0.02;69.96;99807.64;124629;1095;104631;-72
2020/12/10 05:00:27;;;;;;;33.97;18.53;;;;;;;-0.03;70.05;99815.60;124603;1095;104516;-74
2020/12/10 05:02:56;;;;;;;28.57;15.33;;;;;;;-0.04;69.98;99814.77;124629;1095;104522;-74
2020/12/10 05:05:26;;;;;;;26.90;14.70;;;;;;;-0.05;70.55;99815.69;124633;1095;104599;-74
2020/12/10 05:07:57;;;;;;;24.10;12.97;;;;;;;-0.02;70.09;99812.02;124679;1095;104497;-73
2020/12/10 05:10:26;;;;;;;33.15;21.00;;;;;;;0.01;70.76;99816.25;124613;1095;104561;-72
2020/12/10 05:13:05;;;;;;;23.60;13.80;;;;;;;0.04;70.47;99811.66;124674;1095;104525;-72
2020/12/10 05:15:35;;;;;;;27.97;16.00;;;;;;;0.01;70.39;99814.47;124649;1095;104650;-73
2020/12/10 05:18:08;;;;;;;24.63;12.47;;;;;;;0.03;70.38;99802.09;124650;1095;104567;-73
2020/12/10 05:20:41;;;;;;;31.10;14.63;;;;;;;0.06;70.44;99808.91;124648;1096;104519;-73
2020/12/10 05:23:09;;;;;;;26.47;13.50;;;;;;;0.05;70.63;99804.63;124589;1095;104506;-74
2020/12/10 05:25:49;;;;;;;26.97;13.90;;;;;;;-0.01;70.45;99808.48;124690;1095;104487;-71
2020/12/10 05:28:18;;;;;;;28.50;16.20;;;;;;;-0.05;70.31;99809.61;124662;1095;104731;-73
2020/12/10 05:31:00;;;;;;;28.40;15.27;;;;;;;-0.06;70.21;99806.16;124615;1095;104595;-73
2020/12/10 05:33:28;;;;;;;23.27;12.83;;;;;;;-0.09;70.09;99792.39;124616;1095;104602;-74
2020/12/10 05:36:09;;;;;;;34.47;20.03;;;;;;;-0.11;70.73;99800.34;124649;1095;104625;-74
2020/12/10 05:39:02;;;;;;;23.62;13.43;;;;;;;-0.11;71.04;99797.72;124703;1096;104596;-73
2020/12/10 05:41:32;;;;;;;25.53;13.43;;;;;;;-0.10;70.91;99793.31;124598;1095;104570;-76
2020/12/10 05:44:15;;;;;;;30.00;14.55;;;;;;;-0.11;70.63;99787.23;124652;1095;104566;-76
2020/12/10 05:46:43;;;;;;;27.43;15.40;;;;;;;-0.08;70.68;99792.30;124628;1096;104634;-72
2020/12/10 05:49:14;;;;;;;168.43;103.73;;;;;;;-0.05;70.35;99791.25;124613;1095;104621;-75
2020/12/10 05:51:45;;;;;;;101.20;50.00;;;;;;;-0.03;70.29;99789.38;124671;1095;104512;-74
2020/12/10 05:54:15;;;;;;;104.58;59.38;;;;;;;0.01;70.62;99790.03;124614;1095;104490;-75
2020/12/10 05:56:55;;;;;;;110.50;59.07;;;;;;;0.01;70.46;99785.61;124711;1095;104632;-74
2020/12/10 05:59:25;;;;;;;187.03;104.37;;;;;;;0.00;70.08;99797.06;124679;1090;104662;-76
2020/12/10 06:01:56;;;;;;;73.57;36.73;;;;;;;0.04;70.77;99805.55;124632;1095;104490;-74
2020/12/10 06:04:25;;;;;;;114.05;56.10;;;;;;;0.06;70.54;99798.42;124590;1095;104627;-74
2020/12/10 06:06:56;;;;;;;151.50;70.03;;;;;;;0.10;70.54;99802.56;124678;1095;104597;-76
2020/12/10 06:09:26;;;;;;;163.67;75.07;;;;;;;0.11;70.50;99801.61;124600;1095;105104;-74
2020/12/10 06:12:01;;;;;;;171.75;68.05;;;;;;;0.14;70.50;99794.39;124634;1095;104519;-74
2020/12/10 06:14:30;;;;;;;375.17;187.93;;;;;;;0.18;70.80;99788.00;124693;1095;104935;-76
2020/12/10 06:17:08;;;;;;;244.07;100.03;;;;;;;0.20;70.41;99790.53;124621;1095;104695;-78
2020/12/10 06:19:38;;;;;;;127.70;50.30;;;;;;;0.18;70.58;99782.75;124599;1095;104596;-73
2020/12/10 06:22:30;;;;;;;99.43;38.27;;;;;;;0.16;70.80;99781.18;124643;1095;104631;-74
2020/12/10 06:24:57;;;;;;;;;;;;;;;0.19;70.58;99788.84;124642;1095;104599;-74
2020/12/10 06:27:27;;;;;;;126.25;63.40;;;;;;;0.17;70.44;99788.09;124681;1095;104977;-77
2020/12/10 06:30:20;;;;;;;80.27;33.33;;;;;;;0.17;70.29;99791.58;124659;1090;104528;-76
2020/12/10 06:32:49;;;;;;;128.23;79.90;;;;;;;0.14;70.37;99793.55;124476;1088;104606;-74
2020/12/10 06:35:29;;;;;;;70.83;36.57;;;;;;;0.13;70.61;99787.44;124768;1095;104513;-74
2020/12/10 06:37:58;;;;;;;95.00;62.77;;;;;;;0.10;70.46;99797.31;124812;1090;104644;-76
2020/12/10 06:40:35;;;;;;;73.40;40.87;;;;;;;0.12;70.55;99791.02;124596;1095;104532;-74
2020/12/10 06:43:05;;;;;;;51.67;26.23;;;;;;;0.12;70.41;99787.56;124649;1090;104589;-74
2020/12/10 06:45:36;;;;;;;131.90;86.40;;;;;;;0.11;70.52;99785.87;124618;1090;104513;-74
2020/12/10 06:48:06;;;;;;;116.53;77.70;;;;;;;0.09;70.60;99783.34;124845;1090;104733;-75
2020/12/10 06:50:36;;;;;;;70.10;37.77;;;;;;;0.09;70.60;99787.75;124643;1090;104614;-76
2020/12/10 06:53:12;;;;;;;83.03;51.63;;;;;;;0.09;70.48;99779.87;124618;1095;104512;-76
2020/12/10 06:56:03;;;;;;;66.00;41.80;;;;;;;0.10;70.40;99781.58;124683;1096;104625;-74
2020/12/10 06:58:51;;;;;;;83.90;54.80;;;;;;;0.12;70.61;99777.91;124711;1095;104612;-75
2020/12/10 07:01:28;;;;;;;51.97;29.03;;;;;;;0.13;70.40;99783.98;124688;1096;104595;-74
2020/12/10 07:07:19;;;;;;;59.67;30.20;;;;;;;0.15;70.38;99788.19;124620;1095;104554;-74
2020/12/10 07:09:52;;;;;;;49.07;25.03;;;;;;;0.14;70.62;99785.69;124766;1090;104759;-74
2020/12/10 07:12:26;;;;;;;42.30;22.30;;;;;;;0.13;70.22;99782.20;124692;1095;104596;-75
2020/12/10 07:15:11;;;;;;;80.27;44.57;;;;;;;0.11;70.97;99781.45;124599;1095;104605;-74
2020/12/10 07:17:39;;;;;;;117.87;56.70;;;;;;;0.08;70.57;99775.56;124626;1095;104596;-74
2020/12/10 07:20:07;;;;;;;149.10;78.95;;;;;;;0.07;70.59;99769.48;124651;1095;104682;-74
2020/12/10 07:22:35;;;;;;;139.30;55.77;;;;;;;0.07;70.39;99766.02;124596;1095;104571;-74
2020/12/10 07:25:04;;;;;;;99.37;37.33;;;;;;;0.09;71.03;99766.77;124622;1090;104659;-75
2020/12/10 07:27:33;;;;;;;168.53;88.47;;;;;;;0.10;70.71;99774.55;124676;1089;104910;-74
2020/12/10 07:30:02;;;;;;;87.97;35.60;;;;;;;0.11;70.85;99770.96;124630;1095;104673;-75
2020/12/10 07:32:30;;;;;;;95.47;40.90;;;;;;;0.08;70.60;99768.55;124597;1095;104621;-74
2020/12/10 07:34:58;;;;;;;62.83;26.27;;;;;;;0.11;70.45;99764.87;124583;1095;104635;-74
2020/12/10 07:37:30;;;;;;;66.93;32.90;;;;;;;0.10;70.50;99774.55;124577;1090;104516;-75
2020/12/10 07:40:08;;;;;;;53.10;26.67;;;;;;;0.06;70.69;99770.44;124653;1095;104721;-74
2020/12/10 07:42:36;;;;;;;49.07;23.53;;;;;;;0.06;70.67;99759.08;124617;1096;104597;-76
2020/12/10 07:45:13;;;;;;;49.40;21.17;;;;;;;-0.01;70.61;99764.72;124629;1095;104509;-76
2020/12/10 07:47:42;;;;;;;50.35;22.60;;;;;;;-0.01;70.73;99763.89;124695;1095;104595;-74
2020/12/10 07:50:21;;;;;;;61.47;28.60;;;;;;;-0.08;71.10;99760.83;124618;1095;104587;-75
2020/12/10 07:52:50;;;;;;;61.83;29.13;;;;;;;-0.06;70.77;99758.08;124612;1095;104519;-76
2020/12/10 07:55:22;;;;;;;69.97;29.20;;;;;;;-0.03;70.73;99757.90;124612;1095;104517;-76
2020/12/10 07:58:07;;;;;;;68.80;27.75;;;;;;;-0.04;70.57;99751.82;124640;1095;104513;-75
2020/12/10 08:00:37;;;;;;;66.10;27.30;;;;;;;-0.07;70.75;99744.14;124646;1095;104627;-76
2020/12/10 08:03:21;;;;;;;56.20;25.30;;;;;;;-0.06;70.51;99750.22;124660;1095;104601;-76
2020/12/10 08:06:02;;;;;;;58.33;27.00;;;;;;;-0.03;70.77;99750.86;124617;1096;104595;-74
2020/12/10 08:08:39;;;;;;;58.73;26.43;;;;;;;-0.04;70.69;99751.82;124542;1095;104650;-72
2020/12/10 08:11:12;;;;;;;56.40;25.53;;;;;;;-0.04;70.81;99743.95;124593;1095;104599;-73
2020/12/10 08:13:58;;;;;;;65.37;28.97;;;;;;;-0.05;70.44;99749.30;124630;1090;104567;-73
2020/12/10 08:16:37;;;;;;;52.63;25.97;;;;;;;-0.04;70.20;99746.58;124618;1095;104523;-74
2020/12/10 08:19:17;;;;;;;47.87;24.27;;;;;;;-0.03;70.87;99748.24;124709;1095;104516;-72
2020/12/10 08:21:46;;;;;;;42.97;20.60;;;;;;;-0.06;70.85;99755.46;124810;1095;104669;-70
2020/12/10 08:24:33;;;;;;;39.43;19.93;;;;;;;-0.10;70.86;99761.84;124628;1095;104632;-73
2020/12/10 08:27:01;;;;;;;35.80;18.30;;;;;;;-0.13;70.78;99749.78;124631;1095;104522;-73
2020/12/10 08:29:30;;;;;;;39.63;19.80;;;;;;;-0.16;70.44;99747.34;124592;1095;104574;-73
2020/12/10 08:32:10;;;;;;;53.60;30.53;;;;;;;-0.19;70.53;99752.80;124650;1095;104660;-74
2020/12/10 08:34:40;;;;;;;43.00;22.13;;;;;;;-0.16;70.92;99755.20;124630;1095;104515;-73
2020/12/10 08:37:10;;;;;;;46.97;23.90;;;;;;;-0.15;70.86;99756.91;124657;1096;104593;-72
2020/12/10 08:39:40;;;;;;;42.33;20.70;;;;;;;-0.15;70.74;99754.28;124649;1095;104596;-70
2020/12/10 08:42:08;;;;;;;44.60;22.37;;;;;;;-0.12;70.62;99746.20;124676;1096;104740;-75
2020/12/10 08:44:48;;;;;;;40.70;21.00;;;;;;;-0.08;70.23;99747.72;124622;1090;104571;-72
2020/12/10 08:47:24;;;;;;;39.27;19.83;;;;;;;-0.03;70.43;99748.24;124695;1090;104596;-75
2020/12/10 08:50:26;;;;;;;50.97;24.57;;;;;;;0.04;70.53;99753.95;124647;1095;104516;-75
2020/12/10 08:53:09;;;;;;;45.73;22.23;;;;;;;0.08;70.69;99749.33;124619;1096;104736;-73
2020/12/10 08:55:40;;;;;;;42.77;21.57;;;;;;;0.07;70.50;99740.63;124635;1096;104554;-73
2020/12/10 08:58:13;;;;;;;49.00;25.00;;;;;;;0.04;70.52;99734.73;124653;1095;104519;-73
2020/12/10 09:00:42;;;;;;;46.73;24.53;;;;;;;0.01;70.62;99740.19;124608;1095;104974;-73
2020/12/10 09:03:10;;;;;;;58.83;28.83;;;;;;;-0.01;70.83;99740.28;124626;1095;104660;-74
2020/12/10 09:05:39;;;;;;;57.67;28.57;;;;;;;-0.04;70.05;99740.47;124600;1095;104593;-73
2020/12/10 09:08:07;;;;;;;44.73;22.50;;;;;;;-0.05;70.95;99731.77;124630;1090;104592;-73
2020/12/10 09:10:36;;;;;;;49.95;25.15;;;;;;;-0.03;70.65;99732.50;124608;1095;104605;-73
2020/12/10 09:13:05;;;;;;;49.50;23.37;;;;;;;-0.03;70.79;99723.80;124606;1089;104688;-75
2020/12/10 09:15:33;;;;;;;50.63;24.67;;;;;;;-0.04;70.58;99717.73;124669;1095;104595;-74
2020/12/10 09:18:01;;;;;;;46.53;21.83;;;;;;;-0.02;70.32;99713.22;124566;1095;104532;-74
2020/12/10 09:20:30;;;;;;;44.53;23.80;;;;;;;-0.02;70.37;99709.73;124617;1095;104520;-74
2020/12/10 09:22:58;;;;;;;43.77;22.77;;;;;;;0.02;70.29;99710.38;124647;1095;104910;-75
2020/12/10 09:25:26;;;;;;;43.33;20.80;;;;;;;0.02;70.70;99699.89;124611;1095;104528;-72
2020/12/10 09:27:55;;;;;;;42.37;22.17;;;;;;;0.05;70.69;99703.16;124599;1095;104526;-73
2020/12/10 09:30:23;;;;;;;41.57;20.33;;;;;;;0.03;70.65;99712.08;124578;1095;104512;-73
2020/12/10 09:32:52;;;;;;;41.60;20.93;;;;;;;0.03;70.69;99710.29;124622;1095;104583;-76
2020/12/10 09:35:20;;;;;;;37.90;17.90;;;;;;;0.02;70.61;99708.62;124605;1095;104513;-72
2020/12/10 09:37:48;;;;;;;34.93;17.03;;;;;;;0.00;70.39;99702.64;124609;1095;104496;-75
2020/12/10 09:40:16;;;;;;;36.37;19.23;;;;;;;0.02;70.89;99702.52;124634;1095;104516;-72
2020/12/10 09:42:46;;;;;;;32.60;17.23;;;;;;;0.04;70.72;99704.12;124619;1095;104608;-74
2020/12/10 09:45:16;;;;;;;38.33;18.77;;;;;;;0.07;71.10;99700.44;124598;1095;104596;-73
2020/12/10 09:47:46;;;;;;;31.97;16.53;;;;;;;0.06;70.29;99693.50;124603;1095;104599;-73
2020/12/10 09:50:21;;;;;;;37.23;17.97;;;;;;;0.08;70.95;99687.23;124643;1095;104496;-72
2020/12/10 09:52:57;;;;;;;33.00;15.93;;;;;;;0.15;70.80;99682.41;124646;1090;104647;-73
2020/12/10 09:58:17;;;;;;;31.67;15.37;;;;;;;0.29;70.38;99676.25;124376;1090;104708;-73
2020/12/10 10:00:49;;;;;;;29.00;13.90;;;;;;;0.28;70.36;99667.54;124606;1090;104539;-74
2020/12/10 10:03:18;;;;;;;27.17;13.83;;;;;;;0.27;70.27;99659.77;124629;1090;104644;-73
2020/12/10 10:05:47;;;;;;;27.97;14.37;;;;;;;0.29;70.30;99648.25;124636;1089;104589;-73
2020/12/10 10:08:15;;;;;;;41.30;21.13;;;;;;;0.33;70.25;99644.47;124574;1090;104631;-71
2020/12/10 10:10:43;;;;;;;68.83;27.23;;;;;;;0.37;70.23;99643.31;124634;1090;104516;-74
2020/12/10 10:13:11;;;;;;;68.50;22.80;;;;;;;0.37;70.17;99640.69;124719;1090;104659;-73
2020/12/10 10:15:41;;;;;;;140.77;39.07;;;;;;;0.37;70.28;99640.69;124730;1090;104574;-73
2020/12/10 10:18:10;;;;;;;113.20;28.93;;;;;;;0.38;70.04;99621.36;124651;1090;104643;-75
2020/12/10 10:20:39;;;;;;;143.57;36.57;;;;;;;0.38;70.23;99631.03;124629;1090;104490;-71
2020/12/10 10:23:07;;;;;;;84.23;24.00;;;;;;;0.41;70.36;99630.00;124630;1096;104670;-74
2020/12/10 10:25:35;;;;;;;86.20;25.80;;;;;;;0.39;70.22;99627.47;124627;1090;104571;-73
2020/12/10 10:28:04;;;;;;;119.93;33.30;;;;;;;0.39;70.37;99615.19;124573;1095;104516;-73
2020/12/10 10:30:32;;;;;;;184.30;46.37;;;;;;;0.43;70.33;99625.48;124657;1096;104516;-73
2020/12/10 10:33:00;;;;;;;78.57;23.97;;;;;;;0.46;70.30;99614.76;124651;1095;104692;-74
2020/12/10 10:35:29;;;;;;;87.20;28.00;;;;;;;0.47;70.15;99611.20;124632;1095;104576;-76
2020/12/10 10:37:57;;;;;;;102.73;32.17;;;;;;;0.50;70.37;99617.09;124563;1095;104567;-75
2020/12/10 10:40:25;;;;;;;73.53;22.60;;;;;;;0.51;70.50;99612.67;124639;1095;104515;-74
2020/12/10 10:42:54;;;;;;;76.87;26.83;;;;;;;0.53;70.25;99606.36;124646;1095;104650;-74
2020/12/10 10:45:22;;;;;;;56.90;20.50;;;;;;;0.57;70.25;99599.13;124629;1095;104597;-73
2020/12/10 10:47:51;;;;;;;56.57;21.77;;;;;;;0.59;69.89;99603.31;124625;1095;104506;-74
2020/12/10 10:50:19;;;;;;;67.80;26.35;;;;;;;0.62;70.24;99596.16;124618;1095;104528;-72
2020/12/10 10:52:47;;;;;;;49.93;20.33;;;;;;;0.65;70.29;99598.59;124641;1095;104510;-73
2020/12/10 10:55:16;;;;;;;51.90;23.05;;;;;;;0.66;69.94;99601.12;124603;1095;104510;-72
2020/12/10 10:57:44;;;;;;;33.50;15.10;;;;;;;0.68;70.12;99590.52;124575;1095;104516;-73
2020/12/10 11:00:12;;;;;;;32.83;16.93;;;;;;;0.70;70.42;99591.25;124625;1095;104596;-73
2020/12/10 11:02:41;;;;;;;39.50;19.90;;;;;;;0.75;70.03;99591.74;124626;1095;104627;-72
2020/12/10 11:05:09;;;;;;;32.50;16.30;;;;;;;0.76;70.31;99594.27;124609;1095;104699;-73
2020/12/10 11:07:37;;;;;;;34.05;18.15;;;;;;;0.77;69.97;99585.46;124589;1096;104509;-75
2020/12/10 11:10:06;;;;;;;34.17;18.43;;;;;;;0.81;70.18;99582.60;124707;1096;104566;-72
2020/12/10 11:12:35;;;;;;;28.30;15.27;;;;;;;0.84;69.72;99588.48;124685;1095;104640;-72
2020/12/10 11:15:03;;;;;;;24.53;13.57;;;;;;;0.86;69.55;99588.38;124609;1095;104595;-73
2020/12/10 11:17:31;;;;;;;27.67;14.00;;;;;;;0.82;69.43;99582.50;124621;1095;104580;-74
2020/12/10 11:20:01;;;;;;;25.77;13.80;;;;;;;0.85;69.45;99581.44;124627;1095;104472;-72
2020/12/10 11:22:29;;;;;;;23.20;12.50;;;;;;;0.83;69.58;99578.08;124681;1095;105010;-74
2020/12/10 11:24:57;;;;;;;26.17;13.37;;;;;;;0.83;69.40;99580.70;124608;1095;104563;-72